createdAt,value
2017-12-31T00:00:46.888Z,95000.80
2017-12-31T00:05:51.116Z,95014.15
2017-12-31T00:08:29.096Z,95012.52
2017-12-31T00:11:16.707Z,95022.11
2017-12-31T00:13:45.725Z,95009.53
2017-12-31T00:18:49.981Z,95021.66
2017-12-31T00:24:00.200Z,95008.89
2017-12-31T00:29:13.501Z,95054.22
2017-12-31T00:31:42.562Z,95035.59
2017-12-31T00:34:11.627Z,95032.84
2017-12-31T00:36:48.261Z,95028.02
2017-12-31T00:39:17.330Z,95047.44
2017-12-31T00:41:46.372Z,95077.14
2017-12-31T00:46:50.635Z,95031.24
2017-12-31T00:49:25.505Z,95051.45
2017-12-31T00:51:58.297Z,95078.95
2017-12-31T00:54:27.753Z,95061.10
2017-12-31T00:57:02.015Z,95063.53
2017-12-31T00:59:31.102Z,95076.70
2017-12-31T01:02:01.046Z,95083.09
2017-12-31T01:04:30.090Z,95084.89
2017-12-31T01:07:08.241Z,95069.44
2017-12-31T01:09:37.288Z,95104.66
2017-12-31T01:12:09.813Z,95103.46
2017-12-31T01:14:38.858Z,95085.31
2017-12-31T01:17:08.808Z,95079.80
2017-12-31T01:19:37.841Z,95082.21
2017-12-31T01:22:08.879Z,95117.75
2017-12-31T01:24:38.012Z,95092.86
2017-12-31T01:29:42.253Z,95087.86
2017-12-31T01:32:23.230Z,95100.37
2017-12-31T01:35:01.100Z,95110.61
2017-12-31T01:37:30.166Z,95115.42
2017-12-31T01:40:12.622Z,95104.31
2017-12-31T01:42:41.664Z,95107.91
2017-12-31T01:45:23.398Z,95122.66
2017-12-31T01:47:52.415Z,95117.92
2017-12-31T01:50:23.361Z,95116.77
2017-12-31T01:53:00.641Z,95105.29
2017-12-31T01:55:29.657Z,95106.87
2017-12-31T01:58:20.743Z,95134.55
2017-12-31T02:00:50.741Z,95099.48
2017-12-31T02:03:23.513Z,95135.27
2017-12-31T02:06:06.190Z,95111.58
2017-12-31T02:08:35.255Z,95111.95
2017-12-31T02:11:04.370Z,95100.63
2017-12-31T02:13:35.760Z,95111.44
2017-12-31T02:16:05.370Z,95116.32
2017-12-31T02:18:34.434Z,95094.80
2017-12-31T02:21:03.482Z,95114.31
2017-12-31T02:23:32.525Z,95112.70
2017-12-31T02:26:01.570Z,95136.66
2017-12-31T02:28:30.601Z,95130.62
2017-12-31T02:33:34.833Z,95136.18
2017-12-31T02:38:39.069Z,95138.46
2017-12-31T02:43:43.361Z,95129.53
2017-12-31T02:48:48.574Z,95148.36
2017-12-31T02:53:52.837Z,95138.86
2017-12-31T02:56:22.809Z,95156.59
2017-12-31T02:59:04.747Z,95140.73
2017-12-31T03:01:33.847Z,95150.95
2017-12-31T03:04:24.333Z,95142.24
2017-12-31T03:06:53.382Z,95142.19
2017-12-31T03:09:23.350Z,95121.91
2017-12-31T03:11:52.452Z,95133.08
2017-12-31T03:17:07.806Z,95125.45
2017-12-31T03:19:36.855Z,95134.32
2017-12-31T03:22:13.522Z,95137.20
2017-12-31T03:24:42.573Z,95142.20
2017-12-31T03:27:13.529Z,95143.14
2017-12-31T03:29:42.606Z,95148.75
2017-12-31T03:32:15.793Z,95142.03
2017-12-31T03:34:48.384Z,95149.66
2017-12-31T03:37:17.413Z,95163.77
2017-12-31T03:39:46.460Z,95140.02
2017-12-31T03:42:23.661Z,95139.64
2017-12-31T03:45:07.314Z,95148.78
2017-12-31T03:47:36.344Z,95161.14
2017-12-31T03:50:18.381Z,95140.37
2017-12-31T03:52:51.188Z,95158.75
2017-12-31T03:57:59.362Z,95161.41
2017-12-31T04:00:28.401Z,95148.39
2017-12-31T04:02:57.441Z,95158.85
2017-12-31T04:05:26.471Z,95173.34
2017-12-31T04:10:30.759Z,95169.80
2017-12-31T04:13:00.789Z,95164.78
2017-12-31T04:15:29.809Z,95173.87
2017-12-31T04:17:58.858Z,95175.64
2017-12-31T04:20:27.906Z,95184.92
2017-12-31T04:25:32.208Z,95176.39
2017-12-31T04:30:36.442Z,95178.90
2017-12-31T04:35:40.676Z,95180.64
2017-12-31T04:40:45.418Z,95178.95
2017-12-31T04:43:16.438Z,95172.31
2017-12-31T04:45:45.477Z,95168.46
2017-12-31T04:48:23.418Z,95171.92
2017-12-31T04:50:52.461Z,95179.42
2017-12-31T04:53:21.518Z,95183.39
2017-12-31T04:58:27.757Z,95209.55
2017-12-31T05:03:32.014Z,95200.28
2017-12-31T05:06:01.047Z,95199.37
2017-12-31T05:08:30.085Z,95210.02
2017-12-31T05:13:34.322Z,95211.84
2017-12-31T05:16:15.356Z,95213.48
2017-12-31T05:18:48.349Z,95214.33
2017-12-31T05:21:24.409Z,95213.34
2017-12-31T05:24:03.331Z,95205.32
2017-12-31T05:26:32.369Z,95195.46
2017-12-31T05:29:01.411Z,95196.22
2017-12-31T05:31:30.461Z,95190.69
2017-12-31T05:33:59.513Z,95205.16
2017-12-31T05:36:28.553Z,95229.75
2017-12-31T05:38:57.650Z,95191.73
2017-12-31T05:41:29.993Z,95200.75
2017-12-31T05:43:59.034Z,95208.21
2017-12-31T05:46:31.503Z,95209.72
2017-12-31T05:49:00.545Z,95208.91
2017-12-31T05:54:04.841Z,95225.11
2017-12-31T05:56:37.590Z,95245.68
2017-12-31T05:59:09.599Z,95229.69
2017-12-31T06:01:38.617Z,95231.47
2017-12-31T06:04:08.705Z,95242.21
2017-12-31T06:06:41.781Z,95233.00
2017-12-31T06:09:24.556Z,95224.05
2017-12-31T06:11:53.597Z,95241.50
2017-12-31T06:14:34.562Z,95219.24
2017-12-31T06:17:03.598Z,95252.89
2017-12-31T06:19:46.141Z,95266.00
2017-12-31T06:22:30.067Z,95255.97
2017-12-31T06:24:59.125Z,95256.12
2017-12-31T06:27:30.124Z,95253.84
2017-12-31T06:29:59.162Z,95264.74
2017-12-31T06:32:35.416Z,95295.30
2017-12-31T06:35:04.457Z,95280.20
2017-12-31T06:37:33.500Z,95290.36
2017-12-31T06:40:02.542Z,95305.91
2017-12-31T06:42:31.601Z,95288.30
2017-12-31T06:45:00.659Z,95284.32
2017-12-31T06:47:33.841Z,95288.67
2017-12-31T06:50:02.881Z,95286.13
2017-12-31T06:52:31.950Z,95318.80
2017-12-31T06:55:00.977Z,95295.63
2017-12-31T06:57:32.009Z,95295.61
2017-12-31T07:00:01.054Z,95294.62
2017-12-31T07:02:35.237Z,95303.23
2017-12-31T07:05:04.340Z,95297.97
2017-12-31T07:07:33.371Z,95301.36
2017-12-31T07:10:02.414Z,95314.42
2017-12-31T07:12:31.457Z,95322.82
2017-12-31T07:15:00.518Z,95307.66
2017-12-31T07:17:29.555Z,95311.66
2017-12-31T07:19:58.600Z,95288.98
2017-12-31T07:22:27.632Z,95301.53
2017-12-31T07:24:56.700Z,95281.89
2017-12-31T07:30:08.584Z,95295.81
2017-12-31T07:32:37.592Z,95298.87
2017-12-31T07:35:07.650Z,95302.75
2017-12-31T07:37:36.689Z,95312.41
2017-12-31T07:40:05.725Z,95327.84
2017-12-31T07:42:35.672Z,95338.62
2017-12-31T07:45:04.733Z,95321.36
2017-12-31T07:47:33.789Z,95339.73
2017-12-31T07:50:02.829Z,95330.03
2017-12-31T07:52:31.864Z,95327.78
2017-12-31T07:55:00.907Z,95330.64
2017-12-31T07:57:29.976Z,95353.28
2017-12-31T07:59:59.048Z,95329.02
2017-12-31T08:02:28.080Z,95347.68
2017-12-31T08:04:57.265Z,95337.08
2017-12-31T08:07:26.306Z,95330.96
2017-12-31T08:09:55.374Z,95331.28
2017-12-31T08:12:28.137Z,95323.30
2017-12-31T08:14:57.192Z,95323.80
2017-12-31T08:17:26.245Z,95334.98
2017-12-31T08:19:55.299Z,95338.25
2017-12-31T08:22:24.338Z,95340.91
2017-12-31T08:24:53.509Z,95328.84
2017-12-31T08:27:22.525Z,95328.11
2017-12-31T08:29:51.583Z,95332.98
2017-12-31T08:32:20.623Z,95334.30
2017-12-31T08:34:49.667Z,95315.80
2017-12-31T08:37:18.738Z,95328.15
2017-12-31T08:39:47.765Z,95330.45
2017-12-31T08:42:16.838Z,95353.00
2017-12-31T08:44:45.886Z,95333.36
2017-12-31T08:47:14.933Z,95344.79
2017-12-31T08:52:19.214Z,95322.23
2017-12-31T08:54:48.268Z,95328.92
2017-12-31T08:57:17.313Z,95327.53
2017-12-31T08:59:46.359Z,95319.36
2017-12-31T09:02:15.411Z,95324.25
2017-12-31T09:04:48.450Z,95315.74
2017-12-31T09:07:17.511Z,95321.47
2017-12-31T09:12:21.817Z,95331.39
2017-12-31T09:14:52.293Z,95321.06
2017-12-31T09:17:21.340Z,95329.06
2017-12-31T09:19:50.393Z,95344.48
2017-12-31T09:22:19.437Z,95339.20
2017-12-31T09:27:23.787Z,95331.55
2017-12-31T09:29:52.838Z,95342.28
2017-12-31T09:32:21.882Z,95324.34
2017-12-31T09:37:26.150Z,95331.36
2017-12-31T09:42:30.495Z,95336.67
2017-12-31T09:45:01.493Z,95329.50
2017-12-31T09:47:30.543Z,95317.39
2017-12-31T09:49:59.568Z,95327.05
2017-12-31T09:52:58.143Z,95330.91
2017-12-31T09:55:27.192Z,95327.78
2017-12-31T09:58:01.036Z,95327.90
2017-12-31T10:00:30.067Z,95351.64
2017-12-31T10:05:34.349Z,95334.86
2017-12-31T10:08:03.504Z,95351.16
2017-12-31T10:10:32.557Z,95351.63
2017-12-31T10:13:01.593Z,95362.55
2017-12-31T10:15:30.642Z,95356.12
2017-12-31T10:18:00.610Z,95335.48
2017-12-31T10:20:29.657Z,95352.12
2017-12-31T10:25:33.998Z,95333.18
2017-12-31T10:28:03.058Z,95329.56
2017-12-31T10:30:32.129Z,95318.47
2017-12-31T10:33:01.190Z,95315.87
2017-12-31T10:35:30.227Z,95315.04
2017-12-31T10:37:59.279Z,95302.09
2017-12-31T10:40:28.325Z,95307.05
2017-12-31T10:42:57.361Z,95327.13
2017-12-31T10:45:26.405Z,95297.94
2017-12-31T10:47:55.459Z,95294.73
2017-12-31T10:50:24.678Z,95285.30
2017-12-31T10:52:54.653Z,95278.45
2017-12-31T10:55:23.686Z,95281.70
2017-12-31T11:03:15.566Z,95270.63
2017-12-31T11:05:45.525Z,95266.80
2017-12-31T11:08:15.467Z,95259.95
2017-12-31T11:10:44.551Z,95265.84
2017-12-31T11:13:13.602Z,95270.23
2017-12-31T11:18:17.922Z,95266.28
2017-12-31T11:20:46.996Z,95263.28
2017-12-31T11:23:16.061Z,95246.09
2017-12-31T11:25:45.175Z,95254.28
2017-12-31T11:28:15.161Z,95256.55
2017-12-31T11:30:48.317Z,95231.17
2017-12-31T11:33:17.420Z,95241.57
2017-12-31T11:35:46.560Z,95237.87
2017-12-31T11:38:15.677Z,95240.60
2017-12-31T11:40:44.710Z,95211.20
2017-12-31T11:43:13.777Z,95224.39
2017-12-31T11:45:42.865Z,95201.42
2017-12-31T11:48:11.894Z,95209.69
2017-12-31T11:53:16.169Z,95214.05
2017-12-31T11:55:45.229Z,95198.94
2017-12-31T12:00:49.501Z,95181.78
2017-12-31T12:03:18.717Z,95212.39
2017-12-31T12:05:47.785Z,95185.94
2017-12-31T12:08:16.818Z,95210.58
2017-12-31T12:10:45.862Z,95188.98
2017-12-31T12:13:14.897Z,95181.24
2017-12-31T12:15:43.937Z,95205.99
2017-12-31T12:18:12.989Z,95190.63
2017-12-31T12:20:42.038Z,95197.64
2017-12-31T12:23:11.086Z,95186.27
2017-12-31T12:25:43.625Z,95185.32
2017-12-31T12:28:12.684Z,95192.86
2017-12-31T12:33:17.114Z,95171.64
2017-12-31T12:35:46.164Z,95164.59
2017-12-31T12:38:15.197Z,95162.30
2017-12-31T12:40:45.156Z,95147.66
2017-12-31T12:43:14.196Z,95132.30
2017-12-31T12:45:44.226Z,95131.77
2017-12-31T12:48:13.249Z,95114.56
2017-12-31T12:50:42.303Z,95133.52
2017-12-31T12:53:11.365Z,95106.10
2017-12-31T12:55:45.313Z,95108.02
2017-12-31T12:58:14.436Z,95109.20
2017-12-31T13:03:18.681Z,95117.27
2017-12-31T13:05:47.732Z,95084.59
2017-12-31T13:08:17.770Z,95105.81
2017-12-31T13:10:46.870Z,95084.13
2017-12-31T13:13:15.991Z,95097.30
2017-12-31T13:15:45.013Z,95079.94
2017-12-31T13:18:14.975Z,95091.08
2017-12-31T13:20:44.005Z,95074.00
2017-12-31T13:23:13.112Z,95064.27
2017-12-31T13:28:17.358Z,95048.52
2017-12-31T13:30:46.448Z,95050.58
2017-12-31T13:33:15.487Z,95057.41
2017-12-31T13:35:44.551Z,95058.31
2017-12-31T13:38:13.590Z,95044.57
2017-12-31T13:40:43.694Z,95040.23
2017-12-31T13:43:13.638Z,95038.47
2017-12-31T13:45:42.725Z,95041.28
2017-12-31T13:48:11.856Z,95036.37
2017-12-31T13:50:41.030Z,95032.33
2017-12-31T13:53:10.174Z,95039.34
2017-12-31T13:55:39.223Z,95034.14
2017-12-31T13:58:08.316Z,95037.02
2017-12-31T14:03:12.708Z,95031.98
2017-12-31T14:05:41.737Z,95026.92
2017-12-31T14:10:46.093Z,95033.58
2017-12-31T14:13:15.121Z,95030.80
2017-12-31T14:15:44.255Z,95020.71
2017-12-31T14:18:15.384Z,95017.73
2017-12-31T14:20:44.419Z,95013.48
2017-12-31T14:23:14.452Z,95017.05
2017-12-31T14:25:43.498Z,95006.23
2017-12-31T14:28:13.633Z,95001.41
2017-12-31T14:30:43.206Z,94998.58
2017-12-31T14:33:14.212Z,94998.14
2017-12-31T14:35:43.294Z,94996.12
2017-12-31T14:38:13.546Z,94998.36
2017-12-31T14:40:42.684Z,94992.19
2017-12-31T14:43:11.739Z,94992.55
2017-12-31T14:45:40.818Z,94988.92
2017-12-31T14:48:10.841Z,94989.36
2017-12-31T14:50:40.040Z,94989.02
2017-12-31T14:53:12.829Z,94981.58
2017-12-31T14:55:41.961Z,94979.41
2017-12-31T14:58:11.124Z,94977.00
2017-12-31T15:00:40.171Z,94975.44
2017-12-31T15:03:09.264Z,94969.16
2017-12-31T15:05:38.257Z,94961.33
2017-12-31T15:08:07.314Z,94959.42
2017-12-31T15:10:39.578Z,94960.50
2017-12-31T15:13:12.117Z,94952.77
2017-12-31T15:15:41.272Z,94949.80
2017-12-31T15:18:10.388Z,94944.53
2017-12-31T15:20:39.430Z,94944.75
2017-12-31T15:23:09.539Z,94938.48
2017-12-31T15:25:38.610Z,94943.98
2017-12-31T15:30:42.878Z,94940.81
2017-12-31T15:33:12.117Z,94937.95
2017-12-31T15:35:46.439Z,94935.37
2017-12-31T15:38:15.452Z,94934.63
2017-12-31T15:40:44.485Z,94935.48
2017-12-31T15:43:14.377Z,94938.02
2017-12-31T15:48:18.657Z,94931.86
2017-12-31T15:50:47.705Z,94934.56
2017-12-31T15:53:16.743Z,94931.32
2017-12-31T15:55:48.940Z,94931.09
2017-12-31T15:58:18.094Z,94930.72
2017-12-31T16:00:48.348Z,94928.19
2017-12-31T16:03:17.588Z,94922.94
2017-12-31T16:05:46.635Z,94923.45
2017-12-31T16:08:15.730Z,94922.58
2017-12-31T16:10:44.898Z,94926.24
2017-12-31T16:13:13.976Z,94921.58
2017-12-31T16:15:43.055Z,94914.28
2017-12-31T16:18:12.112Z,94912.34
2017-12-31T16:20:41.150Z,94907.13
2017-12-31T16:23:10.176Z,94907.94
2017-12-31T16:25:40.239Z,94901.94
2017-12-31T16:28:09.257Z,94896.47
2017-12-31T16:30:45.878Z,94893.23
2017-12-31T16:33:14.936Z,94889.42
2017-12-31T16:35:43.980Z,94892.30
2017-12-31T16:38:13.022Z,94888.61
2017-12-31T16:43:17.229Z,94882.74
2017-12-31T16:45:46.273Z,94881.90
2017-12-31T16:48:15.309Z,94879.31
2017-12-31T16:50:44.354Z,94875.30
2017-12-31T16:55:50.589Z,94864.97
2017-12-31T16:58:19.625Z,94856.01
2017-12-31T17:03:23.849Z,94851.88
2017-12-31T17:05:52.893Z,94851.58
2017-12-31T17:08:21.930Z,94852.61
2017-12-31T17:10:55.325Z,94851.65
2017-12-31T17:13:24.353Z,94849.13
2017-12-31T17:15:53.393Z,94846.59
2017-12-31T17:18:23.428Z,94842.14
2017-12-31T17:20:52.464Z,94837.52
2017-12-31T17:23:21.512Z,94837.91
2017-12-31T17:25:50.570Z,94837.84
2017-12-31T17:28:19.605Z,94842.28
2017-12-31T17:30:48.641Z,94840.19
2017-12-31T17:33:18.603Z,94832.97
2017-12-31T17:35:47.648Z,94834.83
2017-12-31T17:38:16.699Z,94833.69
2017-12-31T17:43:20.908Z,94822.88
2017-12-31T17:45:49.950Z,94816.78
2017-12-31T17:48:18.985Z,94818.95
2017-12-31T17:50:49.096Z,94821.16
2017-12-31T17:53:18.138Z,94817.53
2017-12-31T17:55:47.162Z,94825.55
2017-12-31T17:58:16.196Z,94822.42
2017-12-31T18:00:45.217Z,94819.95
2017-12-31T18:03:15.202Z,94816.47
2017-12-31T18:05:44.238Z,94813.25
2017-12-31T18:08:15.252Z,94804.77
2017-12-31T18:10:44.290Z,94802.02
2017-12-31T18:13:16.939Z,94804.23
2017-12-31T18:15:45.990Z,94800.25
2017-12-31T18:18:15.941Z,94801.46
2017-12-31T18:20:44.985Z,94803.70
2017-12-31T18:23:18.610Z,94799.85
2017-12-31T18:25:47.643Z,94798.77
2017-12-31T18:28:16.696Z,94793.71
2017-12-31T18:30:45.717Z,94785.88
2017-12-31T18:33:14.768Z,94788.89
2017-12-31T18:35:43.805Z,94780.75
2017-12-31T18:38:12.841Z,94780.67
2017-12-31T18:40:41.918Z,94774.94
2017-12-31T18:43:12.879Z,94769.11
2017-12-31T18:45:41.921Z,94766.44
2017-12-31T18:48:10.993Z,94754.55
2017-12-31T18:50:40.932Z,94746.61
2017-12-31T18:53:09.980Z,94740.34
2017-12-31T18:55:40.909Z,94733.09
2017-12-31T18:58:09.954Z,94725.38
2017-12-31T19:00:39.953Z,94721.94
2017-12-31T19:03:08.980Z,94724.09
2017-12-31T19:05:38.026Z,94710.30
2017-12-31T19:08:15.047Z,94705.72
2017-12-31T19:10:44.085Z,94696.56
2017-12-31T19:13:16.723Z,94699.09
2017-12-31T19:15:46.833Z,94694.93
2017-12-31T19:18:15.847Z,94699.70
2017-12-31T19:20:54.373Z,94698.20
2017-12-31T19:23:23.443Z,94691.00
2017-12-31T19:25:52.494Z,94683.30
2017-12-31T19:30:57.293Z,94681.25
2017-12-31T19:33:26.321Z,94689.55
2017-12-31T19:35:55.360Z,94686.47
2017-12-31T19:38:25.340Z,94683.02
2017-12-31T19:40:54.383Z,94680.36
2017-12-31T19:43:23.445Z,94680.73
2017-12-31T19:45:53.457Z,94682.43
2017-12-31T19:48:22.521Z,94678.73
2017-12-31T19:50:51.538Z,94681.08
2017-12-31T19:53:20.618Z,94683.94
2017-12-31T19:55:53.817Z,94691.34
2017-12-31T19:58:22.857Z,94683.00
2017-12-31T20:00:55.442Z,94690.19
2017-12-31T20:03:26.478Z,94695.47
2017-12-31T20:05:59.122Z,94698.34
2017-12-31T20:08:28.173Z,94691.34
2017-12-31T20:10:57.237Z,94684.55
2017-12-31T20:13:28.271Z,94686.23
2017-12-31T20:15:57.289Z,94685.22
2017-12-31T20:18:26.345Z,94687.53
2017-12-31T20:20:58.966Z,94691.67
2017-12-31T20:23:29.917Z,94690.02
2017-12-31T20:25:58.981Z,94699.93
2017-12-31T20:28:30.037Z,94699.06
2017-12-31T20:33:35.950Z,94692.93
2017-12-31T20:36:05.003Z,94704.42
2017-12-31T20:38:34.033Z,94706.30
2017-12-31T20:41:03.073Z,94703.80
2017-12-31T20:43:32.109Z,94702.31
2017-12-31T20:46:01.174Z,94707.55
2017-12-31T20:48:38.205Z,94705.28
2017-12-31T20:51:07.256Z,94701.63
2017-12-31T20:53:36.285Z,94705.00
2017-12-31T20:56:05.333Z,94704.45
2017-12-31T20:58:34.379Z,94687.76
2017-12-31T21:01:03.432Z,94687.67
2017-12-31T21:03:39.933Z,94699.64
2017-12-31T21:06:08.976Z,94678.34
2017-12-31T21:08:38.025Z,94675.71
2017-12-31T21:11:07.082Z,94681.92
2017-12-31T21:13:40.790Z,94687.91
2017-12-31T21:16:09.847Z,94680.84
2017-12-31T21:21:14.166Z,94674.23
2017-12-31T21:23:46.861Z,94671.17
2017-12-31T21:26:15.909Z,94675.56
2017-12-31T21:31:24.121Z,94677.26
2017-12-31T21:33:55.152Z,94673.72
2017-12-31T21:36:27.812Z,94675.72
2017-12-31T21:38:56.861Z,94688.06
2017-12-31T21:41:27.846Z,94685.00
2017-12-31T21:46:37.005Z,94686.29
2017-12-31T21:49:06.042Z,94684.28
2017-12-31T21:51:40.976Z,94692.20
2017-12-31T21:54:09.997Z,94688.21
2017-12-31T21:56:39.046Z,94692.42
2017-12-31T22:04:15.586Z,94700.09
2017-12-31T22:09:19.822Z,94719.89
2017-12-31T22:11:48.873Z,94718.95
2017-12-31T22:14:17.930Z,94725.08
2017-12-31T22:16:53.205Z,94727.22
2017-12-31T22:19:22.220Z,94729.62
2017-12-31T22:21:53.246Z,94724.06
2017-12-31T22:26:57.579Z,94728.73
2017-12-31T22:29:26.603Z,94724.33
2017-12-31T22:31:57.631Z,94726.63
2017-12-31T22:34:26.702Z,94729.18
2017-12-31T22:36:55.744Z,94725.72
2017-12-31T22:39:28.008Z,94730.37
2017-12-31T22:41:57.042Z,94728.53
2017-12-31T22:44:27.067Z,94728.81
2017-12-31T22:46:57.041Z,94728.55
2017-12-31T22:49:26.075Z,94730.64
2017-12-31T22:51:55.113Z,94728.66
2017-12-31T22:54:24.161Z,94724.80
2017-12-31T22:57:04.809Z,94721.34
2017-12-31T22:59:33.826Z,94716.55
2017-12-31T23:02:03.786Z,94714.30
2017-12-31T23:04:32.835Z,94714.27
2017-12-31T23:07:17.561Z,94712.69
2017-12-31T23:09:46.632Z,94709.59
2017-12-31T23:12:16.589Z,94706.78
2017-12-31T23:14:45.651Z,94711.84
2017-12-31T23:17:15.613Z,94705.13
2017-12-31T23:19:44.707Z,94708.44
2017-12-31T23:22:13.725Z,94702.25
2017-12-31T23:24:42.782Z,94706.51
2017-12-31T23:27:11.858Z,94708.17
2017-12-31T23:29:40.866Z,94696.34
2017-12-31T23:32:09.918Z,94703.37
2017-12-31T23:34:38.964Z,94705.02
2017-12-31T23:37:08.917Z,94702.33
2017-12-31T23:39:37.954Z,94700.27
2017-12-31T23:42:12.784Z,94702.64
2017-12-31T23:44:41.826Z,94695.89
2017-12-31T23:47:10.897Z,94696.47
2017-12-31T23:49:39.945Z,94689.73
2017-12-31T23:52:11.056Z,94690.57
2017-12-31T23:54:40.089Z,94688.06
2017-12-31T23:57:09.145Z,94691.04
2017-12-31T23:59:38.186Z,94690.96
